Time;durP1;ratioP1;P1;durP2;ratioP2;P2;SDS_P1;SDS_P2;PMS_P1;PMS_P2;Temp;Humidity;BMP_temperature;BMP_pressure;BME280_temperature;BME280_humidity;BME280_pressure;Samples;Min_cycle;Max_cycle;Signal;HPM_P1;HPM_P2
2021/01/30 00:03:47;;;;;;;0.87;0.60;;;16.70;37.50;;;;;;8396364;28;20083;-57
2021/01/30 00:07:48;;;;;;;3.23;1.00;;;16.70;37.50;;;;;;8399306;28;20082;-57
2021/01/30 00:11:54;;;;;;;2.50;0.80;;;16.70;37.40;;;;;;8395962;28;20028;-56
2021/01/30 00:15:55;;;;;;;0.98;0.50;;;16.70;37.40;;;;;;8415712;28;20101;-57
2021/01/30 00:19:55;;;;;;;1.87;0.77;;;16.70;37.40;;;;;;8416462;28;20350;-57
2021/01/30 00:23:56;;;;;;;1.53;0.77;;;16.70;37.40;;;;;;8395471;28;20378;-57
2021/01/30 00:27:57;;;;;;;0.60;0.50;;;16.70;37.40;;;;;;8399813;28;20032;-57
2021/01/30 00:31:59;;;;;;;0.70;0.70;;;16.70;37.40;;;;;;8393739;28;20501;-57
2021/01/30 00:35:59;;;;;;;0.75;0.68;;;16.70;37.40;;;;;;8395172;28;20226;-57
2021/01/30 00:40:00;;;;;;;1.57;0.60;;;16.70;37.40;;;;;;8393769;28;20107;-55
2021/01/30 00:44:00;;;;;;;1.10;0.60;;;16.70;37.40;;;;;;8398852;28;20101;-57
2021/01/30 00:48:01;;;;;;;1.10;0.57;;;16.60;37.30;;;;;;8395034;28;20047;-57
2021/01/30 00:52:02;;;;;;;1.90;0.60;;;16.70;37.40;;;;;;8393222;28;20033;-56
2021/01/30 00:56:03;;;;;;;0.95;0.50;;;16.70;37.40;;;;;;8395269;28;20135;-57
2021/01/30 01:00:22;;;;;;;1.77;0.73;;;16.70;37.30;;;;;;8399015;28;20040;-57
2021/01/30 01:04:23;;;;;;;1.80;0.80;;;16.70;37.40;;;;;;8397140;28;20523;-57
2021/01/30 01:08:23;;;;;;;1.20;0.73;;;16.70;37.30;;;;;;8394229;28;20040;-55
2021/01/30 01:12:24;;;;;;;2.07;0.70;;;16.70;37.30;;;;;;8394028;28;20183;-57
2021/01/30 01:16:25;;;;;;;0.70;0.50;;;16.60;37.30;;;;;;8392128;28;20041;-56
2021/01/30 01:20:25;;;;;;;1.03;0.70;;;16.70;37.40;;;;;;8398243;28;20036;-57
2021/01/30 01:24:25;;;;;;;3.23;0.70;;;16.70;37.40;;;;;;8393640;28;20453;-56
2021/01/30 01:28:26;;;;;;;1.27;0.80;;;16.70;37.30;;;;;;8391917;28;20028;-57
2021/01/30 01:32:27;;;;;;;1.00;0.60;;;16.70;37.30;;;;;;8393565;28;20029;-57
2021/01/30 01:36:27;;;;;;;1.87;0.60;;;16.70;37.30;;;;;;8397412;28;20191;-56
2021/01/30 01:40:36;;;;;;;0.93;0.60;;;16.70;37.20;;;;;;8391750;27;20128;-56
2021/01/30 01:44:38;;;;;;;1.25;0.80;;;16.70;37.30;;;;;;8392909;28;20029;-57
2021/01/30 01:48:43;;;;;;;1.88;0.70;;;16.70;37.40;;;;;;8393311;28;20030;-57
2021/01/30 01:52:43;;;;;;;2.13;0.75;;;16.70;37.30;;;;;;8390146;27;20048;-56
2021/01/30 01:56:45;;;;;;;1.03;0.60;;;16.70;37.30;;;;;;8396650;28;20047;-57
2021/01/30 02:00:51;;;;;;;0.82;0.47;;;16.70;37.20;;;;;;8392448;28;20505;-57
2021/01/30 02:05:15;;;;;;;2.03;0.75;;;16.70;37.20;;;;;;8408391;28;20039;-55
2021/01/30 02:09:22;;;;;;;2.47;0.80;;;16.70;37.30;;;;;;8413830;28;20037;-57
2021/01/30 02:13:32;;;;;;;2.80;0.70;;;16.70;37.30;;;;;;8390643;28;20124;-57
2021/01/30 02:17:43;;;;;;;1.75;0.70;;;16.70;37.30;;;;;;8397158;28;20048;-57
2021/01/30 02:22:13;;;;;;;1.77;0.80;;;16.60;37.30;;;;;;8392467;27;20555;-57
2021/01/30 02:26:19;;;;;;;1.25;0.95;;;16.70;37.20;;;;;;8413349;28;20036;-57
2021/01/30 02:30:38;;;;;;;1.70;0.90;;;16.60;37.40;;;;;;8411302;28;20060;-57
2021/01/30 02:35:14;;;;;;;0.95;0.50;;;16.70;37.30;;;;;;8390435;27;20031;-56
2021/01/30 02:39:25;;;;;;;1.83;0.70;;;16.70;37.30;;;;;;8392670;28;20059;-57
2021/01/30 02:43:34;;;;;;;2.07;1.00;;;16.70;37.30;;;;;;8427821;28;20510;-57
2021/01/30 02:47:42;;;;;;;1.50;0.77;;;16.60;37.40;;;;;;8397020;28;20032;-57
2021/01/30 02:51:45;;;;;;;2.03;0.70;;;16.60;37.30;;;;;;8392539;28;20033;-57
2021/01/30 02:55:51;;;;;;;1.70;0.68;;;16.60;37.30;;;;;;8389541;28;20056;-57
2021/01/30 02:59:55;;;;;;;0.80;0.50;;;16.60;37.40;;;;;;8393280;28;20089;-57
2021/01/30 03:03:58;;;;;;;1.55;0.65;;;16.60;37.40;;;;;;8394385;28;20370;-57
2021/01/30 03:08:24;;;;;;;1.98;0.80;;;16.70;37.30;;;;;;8389302;28;20043;-56
2021/01/30 03:12:43;;;;;;;0.80;0.60;;;16.70;37.30;;;;;;8391101;27;20031;-57
2021/01/30 03:16:45;;;;;;;2.20;0.90;;;16.60;37.40;;;;;;8389472;27;20054;-57
2021/01/30 03:20:46;;;;;;;1.77;0.90;;;16.60;37.20;;;;;;8390991;28;20075;-57
2021/01/30 03:24:48;;;;;;;2.53;0.80;;;16.60;37.20;;;;;;8394930;28;20059;-57
2021/01/30 03:28:49;;;;;;;;;;;16.60;37.10;;;;;;8389917;27;20082;-57
2021/01/30 03:32:50;;;;;;;1.20;0.88;;;16.70;37.20;;;;;;8390660;28;19908;-57
2021/01/30 03:36:51;;;;;;;2.53;0.82;;;16.60;37.20;;;;;;8390532;28;20037;-56
2021/01/30 03:40:51;;;;;;;1.23;0.70;;;16.60;37.20;;;;;;8393293;28;20428;-56
2021/01/30 03:44:52;;;;;;;0.90;0.53;;;16.60;37.20;;;;;;8391550;28;20036;-57
2021/01/30 03:48:52;;;;;;;0.90;0.70;;;16.60;37.20;;;;;;8390673;28;20032;-57
2021/01/30 03:52:53;;;;;;;2.90;0.60;;;16.60;37.10;;;;;;8388581;27;20037;-57
2021/01/30 03:56:53;;;;;;;2.07;0.70;;;16.60;37.10;;;;;;8394487;28;20374;-56
2021/01/30 04:00:54;;;;;;;1.77;0.63;;;16.60;37.10;;;;;;8390216;28;20036;-56
2021/01/30 04:04:54;;;;;;;1.87;0.80;;;16.70;37.20;;;;;;8388411;28;20056;-56
2021/01/30 04:08:55;;;;;;;3.57;0.70;;;16.60;37.20;;;;;;8401765;28;20093;-56
2021/01/30 04:12:57;;;;;;;1.47;0.70;;;16.70;37.30;;;;;;8421179;28;20038;-56
2021/01/30 04:16:58;;;;;;;2.35;0.60;;;16.70;37.30;;;;;;8394449;28;20055;-56
2021/01/30 04:20:58;;;;;;;2.17;0.80;;;16.70;37.40;;;;;;8395710;28;20037;-57
2021/01/30 04:24:59;;;;;;;1.23;0.60;;;16.70;37.50;;;;;;8394171;28;20040;-53
2021/01/30 04:28:59;;;;;;;2.33;0.83;;;16.70;37.60;;;;;;8400872;28;20035;-57
2021/01/30 04:33:00;;;;;;;3.53;1.30;;;16.80;37.40;;;;;;8433272;28;20032;-56
2021/01/30 04:37:01;;;;;;;1.83;0.70;;;16.80;37.50;;;;;;8426473;28;20069;-56
2021/01/30 04:41:08;;;;;;;3.77;0.80;;;16.90;37.50;;;;;;8408706;28;20123;-57
2021/01/30 04:45:36;;;;;;;0.70;0.50;;;16.90;37.40;;;;;;8394968;28;20082;-57
2021/01/30 04:50:08;;;;;;;0.50;0.40;;;16.90;37.50;;;;;;8393133;28;20032;-57
2021/01/30 04:54:34;;;;;;;2.78;0.93;;;17.00;37.70;;;;;;8398870;28;20029;-56
2021/01/30 04:59:06;;;;;;;0.82;0.65;;;17.10;37.60;;;;;;8364380;28;20086;-57
2021/01/30 05:03:25;;;;;;;0.90;0.50;;;17.10;37.40;;;;;;8398597;28;20045;-57
2021/01/30 05:07:40;;;;;;;1.92;0.70;;;17.20;37.60;;;;;;8392886;28;20040;-56
2021/01/30 05:11:47;;;;;;;2.03;0.73;;;17.20;37.50;;;;;;8394952;28;20056;-57
2021/01/30 05:16:03;;;;;;;1.27;0.55;;;17.20;37.50;;;;;;8393809;28;20452;-57
2021/01/30 05:20:09;;;;;;;1.45;0.52;;;17.30;37.50;;;;;;8397296;28;20080;-56
2021/01/30 05:24:11;;;;;;;0.65;0.65;;;17.30;37.60;;;;;;8393610;27;20048;-57
2021/01/30 05:28:25;;;;;;;;;;;17.40;37.50;;;;;;8392575;27;20124;-57
2021/01/30 05:32:52;;;;;;;1.50;0.70;;;17.40;37.60;;;;;;8393732;28;19965;-58
2021/01/30 05:37:02;;;;;;;1.20;0.55;;;17.40;37.60;;;;;;8393345;28;20378;-57
2021/01/30 05:41:09;;;;;;;1.17;0.70;;;17.50;37.60;;;;;;8396543;28;20028;-57
2021/01/30 05:45:45;;;;;;;0.90;0.57;;;17.50;37.80;;;;;;8396691;28;20071;-57
2021/01/30 05:50:04;;;;;;;0.50;0.35;;;17.50;37.70;;;;;;8391658;28;20058;-57
2021/01/30 05:54:05;;;;;;;1.50;0.80;;;17.50;37.60;;;;;;8392900;28;20434;-57
2021/01/30 05:58:10;;;;;;;1.03;0.60;;;17.60;37.70;;;;;;8391156;28;20109;-57
2021/01/30 06:02:22;;;;;;;1.77;0.50;;;17.60;37.70;;;;;;8392879;28;20024;-57
2021/01/30 06:06:25;;;;;;;0.60;0.50;;;17.70;37.70;;;;;;8395364;27;20040;-58
2021/01/30 06:10:31;;;;;;;0.75;0.50;;;17.70;37.60;;;;;;8390876;27;20029;-58
2021/01/30 06:14:37;;;;;;;1.00;0.60;;;17.70;37.70;;;;;;8410469;28;20047;-58
2021/01/30 06:18:40;;;;;;;1.80;0.75;;;17.80;37.90;;;;;;8416045;27;20059;-59
2021/01/30 06:22:41;;;;;;;1.60;0.60;;;17.80;37.60;;;;;;8393358;27;20021;-57
2021/01/30 06:26:46;;;;;;;0.70;0.55;;;17.80;37.60;;;;;;8426894;28;20032;-58
2021/01/30 06:30:47;;;;;;;0.93;0.60;;;17.80;37.70;;;;;;8400870;28;20131;-58
2021/01/30 06:34:54;;;;;;;1.20;0.70;;;17.80;37.70;;;;;;8390531;27;20028;-57
2021/01/30 06:39:08;;;;;;;1.10;0.50;;;17.80;37.70;;;;;;8391766;28;20076;-57
2021/01/30 06:43:15;;;;;;;2.80;0.70;;;17.90;37.60;;;;;;8394082;27;20140;-60
2021/01/30 06:47:19;;;;;;;1.58;0.70;;;17.90;37.60;;;;;;8391479;28;20140;-57
2021/01/30 06:51:36;;;;;;;2.35;0.93;;;17.90;37.50;;;;;;8391405;28;20036;-57
2021/01/30 06:55:36;;;;;;;1.10;0.70;;;17.90;37.50;;;;;;8389380;28;20373;-57
2021/01/30 06:59:49;;;;;;;2.23;0.90;;;18.00;37.60;;;;;;8391647;28;20071;-58
2021/01/30 07:03:59;;;;;;;0.80;0.57;;;18.00;37.60;;;;;;8395672;28;20035;-57
2021/01/30 07:08:33;;;;;;;1.58;0.82;;;18.00;37.60;;;;;;8420104;28;20040;-57
2021/01/30 07:13:08;;;;;;;0.90;0.70;;;18.00;37.50;;;;;;8398640;28;20040;-57
2021/01/30 07:17:11;;;;;;;0.70;0.47;;;18.00;37.50;;;;;;8409110;28;20501;-57
2021/01/30 07:21:20;;;;;;;1.80;0.60;;;18.10;37.60;;;;;;8412942;28;20029;-57
2021/01/30 07:25:24;;;;;;;2.25;0.80;;;18.10;37.60;;;;;;8389080;28;20028;-57
2021/01/30 07:29:33;;;;;;;1.42;0.85;;;18.10;37.50;;;;;;8395430;28;20123;-57
2021/01/30 07:33:56;;;;;;;1.38;0.73;;;18.10;37.60;;;;;;8390677;28;20040;-57
2021/01/30 07:38:01;;;;;;;2.13;1.00;;;18.10;38.10;;;;;;8408519;28;20130;-57
2021/01/30 07:42:17;;;;;;;0.68;0.60;;;18.20;37.50;;;;;;8412506;27;20033;-57
2021/01/30 07:46:40;;;;;;;0.60;0.60;;;18.20;37.50;;;;;;8388924;28;20056;-57
2021/01/30 07:50:54;;;;;;;1.20;0.73;;;18.20;37.30;;;;;;8394837;28;20032;-57
2021/01/30 07:54:57;;;;;;;0.98;0.80;;;18.20;37.40;;;;;;8396839;28;20068;-57
2021/01/30 07:59:19;;;;;;;2.60;1.15;;;18.20;38.50;;;;;;8394756;28;20037;-57
2021/01/30 08:03:50;;;;;;;1.98;1.15;;;18.20;38.00;;;;;;8396767;27;20040;-57
2021/01/30 08:08:29;;;;;;;3.47;1.35;;;18.20;38.20;;;;;;8394384;28;20037;-57
2021/01/30 08:12:53;;;;;;;2.78;1.65;;;18.20;37.70;;;;;;8394469;28;20028;-57
2021/01/30 08:17:05;;;;;;;6.57;2.47;;;18.30;37.60;;;;;;8397871;28;20053;-57
2021/01/30 08:21:35;;;;;;;4.75;2.50;;;18.30;37.30;;;;;;8397564;27;20067;-58
2021/01/30 08:25:46;;;;;;;4.88;2.60;;;18.40;37.30;;;;;;8394591;28;20039;-55
2021/01/30 08:29:49;;;;;;;6.65;3.17;;;18.40;37.30;;;;;;8394394;28;20037;-57
2021/01/30 08:34:10;;;;;;;5.68;2.72;;;18.40;37.30;;;;;;8394070;28;20427;-54
2021/01/30 08:38:17;;;;;;;5.35;2.58;;;18.40;37.20;;;;;;8404462;28;20048;-57
2021/01/30 08:42:20;;;;;;;6.13;2.40;;;18.40;36.60;;;;;;8394633;28;20028;-56
2021/01/30 08:46:25;;;;;;;4.80;2.45;;;18.40;37.30;;;;;;8391770;28;20048;-57
2021/01/30 08:50:26;;;;;;;5.88;2.53;;;18.40;37.80;;;;;;8388160;28;20062;-57
2021/01/30 08:54:37;;;;;;;5.70;2.80;;;18.50;38.10;;;;;;8388812;28;20052;-58
2021/01/30 08:58:37;;;;;;;5.93;2.72;;;18.60;38.30;;;;;;8391300;28;20068;-57
2021/01/30 09:02:38;;;;;;;8.93;2.47;;;18.70;38.40;;;;;;8388347;28;20028;-57
2021/01/30 09:06:38;;;;;;;3.47;2.00;;;18.80;38.50;;;;;;8388433;28;20093;-57
2021/01/30 09:10:41;;;;;;;5.00;2.30;;;18.80;38.40;;;;;;8386986;28;20063;-56
2021/01/30 09:14:41;;;;;;;6.32;2.13;;;18.90;38.50;;;;;;8376115;28;20028;-55
2021/01/30 09:18:48;;;;;;;6.97;2.57;;;19.00;38.50;;;;;;8392198;28;20117;-57
2021/01/30 09:22:55;;;;;;;6.05;2.88;;;19.00;38.90;;;;;;8392982;28;20036;-57
2021/01/30 09:27:12;;;;;;;6.22;2.50;;;19.10;38.80;;;;;;8387889;28;20047;-58
2021/01/30 09:31:17;;;;;;;3.22;1.80;;;19.10;38.70;;;;;;8385774;28;20047;-58
2021/01/30 09:35:22;;;;;;;5.13;2.35;;;19.20;38.60;;;;;;8387939;28;20402;-59
2021/01/30 09:39:24;;;;;;;7.10;2.45;;;19.30;38.60;;;;;;8391173;28;20095;-60
2021/01/30 09:43:25;;;;;;;5.13;2.30;;;19.40;39.00;;;;;;8385092;28;20551;-56
2021/01/30 09:47:25;;;;;;;8.80;2.13;;;19.40;38.80;;;;;;8386656;28;20064;-60
2021/01/30 09:51:26;;;;;;;13.70;3.40;;;19.50;39.00;;;;;;8386671;28;20026;-58
2021/01/30 09:55:27;;;;;;;7.10;2.33;;;19.50;39.00;;;;;;8389025;28;20405;-58
2021/01/30 09:59:29;;;;;;;8.25;2.42;;;19.60;39.00;;;;;;8408201;28;20131;-58
2021/01/30 10:03:36;;;;;;;6.10;2.30;;;19.60;39.00;;;;;;8391457;28;20505;-58
2021/01/30 10:07:37;;;;;;;5.88;2.38;;;19.60;38.70;;;;;;8394293;27;20130;-55
2021/01/30 10:11:40;;;;;;;6.13;2.25;;;19.70;38.80;;;;;;8418494;28;20040;-57
2021/01/30 10:15:44;;;;;;;8.13;2.20;;;19.70;38.80;;;;;;8387201;28;20463;-58
2021/01/30 10:19:45;;;;;;;6.60;2.33;;;19.70;38.50;;;;;;8409249;28;20051;-57
2021/01/30 10:23:48;;;;;;;5.57;2.37;;;19.80;38.50;;;;;;8403765;28;20071;-58
2021/01/30 10:27:48;;;;;;;8.07;2.25;;;19.80;38.50;;;;;;8384695;28;20036;-57
2021/01/30 10:31:57;;;;;;;7.70;2.60;;;19.90;38.50;;;;;;8385138;28;20071;-50
2021/01/30 10:35:58;;;;;;;19.23;8.25;;;19.90;37.20;;;;;;8385126;28;20037;-49
2021/01/30 10:40:08;;;;;;;10.63;4.47;;;19.50;35.80;;;;;;8385666;28;20063;-56
2021/01/30 10:44:10;;;;;;;15.57;3.65;;;19.00;37.20;;;;;;8382786;28;20123;-54
2021/01/30 10:48:14;;;;;;;20.95;4.10;;;18.90;38.60;;;;;;8385974;28;20043;-57
2021/01/30 10:52:24;;;;;;;15.82;4.57;;;19.10;38.70;;;;;;8398157;28;20498;-57
2021/01/30 10:56:29;;;;;;;21.27;3.97;;;19.40;38.50;;;;;;8394525;28;20139;-59
2021/01/30 11:00:30;;;;;;;10.55;3.75;;;19.50;38.30;;;;;;8384329;28;20032;-56
2021/01/30 11:04:31;;;;;;;14.30;4.25;;;19.60;38.20;;;;;;8383036;28;20094;-58
2021/01/30 11:08:32;;;;;;;11.93;4.00;;;19.80;38.80;;;;;;8388520;28;20038;-57
2021/01/30 11:12:32;;;;;;;17.27;4.95;;;19.80;38.20;;;;;;8383630;28;20485;-58
2021/01/30 11:16:33;;;;;;;16.07;3.33;;;19.90;38.00;;;;;;8382696;28;20055;-56
2021/01/30 11:20:46;;;;;;;12.17;3.50;;;19.90;38.30;;;;;;8387045;28;20405;-56
2021/01/30 11:24:49;;;;;;;12.02;3.40;;;20.00;38.50;;;;;;8382123;28;20085;-57
2021/01/30 11:28:50;;;;;;;13.35;3.70;;;20.10;38.60;;;;;;8393256;28;20033;-56
2021/01/30 11:33:17;;;;;;;25.25;4.55;;;20.20;38.50;;;;;;8390319;28;20068;-56
2021/01/30 11:37:18;;;;;;;15.68;4.65;;;20.20;38.10;;;;;;8388723;28;20048;-59
2021/01/30 11:41:18;;;;;;;12.03;3.67;;;20.20;38.20;;;;;;8390285;28;20079;-60
2021/01/30 11:45:19;;;;;;;11.23;4.23;;;20.30;38.20;;;;;;8389929;28;20052;-57
2021/01/30 11:49:20;;;;;;;8.13;2.93;;;20.30;38.20;;;;;;8390863;28;20083;-59
2021/01/30 11:53:28;;;;;;;12.25;3.20;;;20.40;38.20;;;;;;8395183;27;20039;-58
2021/01/30 11:57:29;;;;;;;8.75;2.78;;;20.50;38.20;;;;;;8390097;28;20064;-53
2021/01/30 12:01:31;;;;;;;7.28;2.90;;;20.50;38.20;;;;;;8388476;27;20044;-58
2021/01/30 12:05:32;;;;;;;9.98;2.97;;;20.60;38.10;;;;;;8394797;28;20047;-57
2021/01/30 12:09:33;;;;;;;10.20;3.08;;;20.60;38.00;;;;;;8389061;28;20537;-52
2021/01/30 12:13:33;;;;;;;9.53;2.97;;;20.70;38.20;;;;;;8387363;28;20097;-57
2021/01/30 12:17:45;;;;;;;21.03;3.60;;;20.70;38.20;;;;;;8387377;27;20060;-56
2021/01/30 12:21:46;;;;;;;7.18;2.63;;;20.70;38.30;;;;;;8388038;27;20044;-56
2021/01/30 12:25:48;;;;;;;9.38;2.95;;;20.80;38.30;;;;;;8389823;28;20039;-57
2021/01/30 12:29:48;;;;;;;8.40;2.38;;;20.90;38.30;;;;;;8388256;28;20550;-52
2021/01/30 12:33:49;;;;;;;11.00;3.60;;;20.80;38.20;;;;;;8391720;28;20155;-56
2021/01/30 12:37:50;;;;;;;8.53;3.00;;;20.80;38.50;;;;;;8385583;27;20412;-53
2021/01/30 12:41:51;;;;;;;8.98;3.15;;;20.90;38.40;;;;;;8384972;28;20509;-56
2021/01/30 12:45:51;;;;;;;7.03;2.70;;;20.90;38.40;;;;;;8393083;28;20048;-56
2021/01/30 12:49:52;;;;;;;10.77;2.30;;;20.90;38.60;;;;;;8384875;27;20469;-55
2021/01/30 12:53:52;;;;;;;8.50;2.30;;;21.00;38.60;;;;;;8386470;28;20028;-58
2021/01/30 12:57:53;;;;;;;7.07;2.70;;;21.00;38.60;;;;;;8392088;27;20512;-57
2021/01/30 13:01:54;;;;;;;8.07;2.65;;;21.00;38.70;;;;;;8386185;28;20106;-57
2021/01/30 13:05:55;;;;;;;7.93;3.40;;;21.10;39.20;;;;;;8407194;28;20421;-56
2021/01/30 13:09:55;;;;;;;4.63;2.08;;;21.10;38.60;;;;;;8387265;28;20098;-58
2021/01/30 13:13:56;;;;;;;10.90;2.23;;;21.20;38.60;;;;;;8385737;28;20442;-55
2021/01/30 13:17:56;;;;;;;9.73;2.63;;;21.20;38.60;;;;;;8391290;28;20074;-57
2021/01/30 13:21:57;;;;;;;9.37;2.57;;;21.30;38.70;;;;;;8384046;27;20473;-55
2021/01/30 13:25:58;;;;;;;9.27;2.20;;;21.30;38.60;;;;;;8384355;28;20286;-59
2021/01/30 13:29:58;;;;;;;5.27;1.70;;;21.30;38.40;;;;;;8385994;28;20513;-57
2021/01/30 13:33:59;;;;;;;18.23;2.67;;;21.30;38.40;;;;;;8388293;28;20041;-55
2021/01/30 13:38:00;;;;;;;29.63;3.00;;;21.40;38.80;;;;;;8386826;28;20049;-57
2021/01/30 13:42:01;;;;;;;20.10;2.72;;;21.40;39.30;;;;;;8386841;28;20045;-58
2021/01/30 13:46:01;;;;;;;26.00;3.30;;;21.40;38.70;;;;;;8385337;27;20531;-59
2021/01/30 13:50:05;;;;;;;26.43;2.87;;;21.40;38.70;;;;;;8385542;27;20763;-57
2021/01/30 13:54:06;;;;;;;16.25;2.65;;;21.40;38.70;;;;;;8390945;28;20384;-56
2021/01/30 13:58:06;;;;;;;16.40;2.60;;;21.50;38.50;;;;;;8384206;28;20094;-55
2021/01/30 14:02:07;;;;;;;13.70;2.77;;;21.50;38.40;;;;;;8386024;27;20036;-58
2021/01/30 14:06:07;;;;;;;14.90;3.03;;;21.50;38.20;;;;;;8385286;28;20036;-56
2021/01/30 14:10:10;;;;;;;9.80;2.70;;;21.50;38.20;;;;;;8387856;28;20064;-57
2021/01/30 14:14:11;;;;;;;8.43;2.40;;;21.50;38.20;;;;;;8385395;28;20467;-56
2021/01/30 14:18:12;;;;;;;16.77;2.63;;;21.60;38.30;;;;;;8385515;28;20099;-55
2021/01/30 14:22:12;;;;;;;8.98;3.00;;;21.60;38.20;;;;;;8382807;27;20279;-58
2021/01/30 14:26:13;;;;;;;12.40;2.47;;;21.60;38.40;;;;;;8390583;28;20059;-58
2021/01/30 14:30:16;;;;;;;7.13;2.15;;;21.60;38.30;;;;;;8391180;28;20072;-58
2021/01/30 14:34:16;;;;;;;5.70;2.28;;;21.60;38.20;;;;;;8389288;28;20481;-58
2021/01/30 14:38:18;;;;;;;13.60;2.73;;;21.70;38.20;;;;;;8391305;28;20060;-58
2021/01/30 14:42:19;;;;;;;8.25;2.50;;;21.60;38.10;;;;;;8390847;28;20040;-59
2021/01/30 14:46:19;;;;;;;10.80;2.83;;;21.60;38.60;;;;;;8393169;28;20470;-58
2021/01/30 14:50:21;;;;;;;9.45;2.47;;;21.70;39.00;;;;;;8389858;28;20021;-56
2021/01/30 14:54:22;;;;;;;8.80;3.08;;;21.70;38.50;;;;;;8390581;28;20039;-56
2021/01/30 14:58:22;;;;;;;12.32;2.38;;;21.70;38.60;;;;;;8386070;27;20049;-57
2021/01/30 15:02:23;;;;;;;9.97;2.53;;;21.70;38.60;;;;;;8394368;27;20616;-57
2021/01/30 15:06:23;;;;;;;42.40;3.47;;;21.70;38.50;;;;;;8392519;28;20145;-58
2021/01/30 15:10:24;;;;;;;5.60;2.77;;;21.70;38.40;;;;;;8388720;28;20052;-59
2021/01/30 15:14:25;;;;;;;6.05;2.08;;;21.70;38.30;;;;;;8390650;28;20557;-57
2021/01/30 15:18:25;;;;;;;7.20;2.23;;;21.70;38.30;;;;;;8390233;28;20047;-58
2021/01/30 15:22:27;;;;;;;5.83;2.40;;;21.80;38.20;;;;;;8391819;27;20481;-60
2021/01/30 15:26:38;;;;;;;7.63;2.45;;;21.80;38.10;;;;;;8399208;27;20131;-57
2021/01/30 15:30:38;;;;;;;10.07;2.35;;;21.80;38.10;;;;;;8389940;28;20024;-57
2021/01/30 15:34:39;;;;;;;6.90;2.10;;;21.80;38.10;;;;;;8387570;27;20478;-57
2021/01/30 15:38:40;;;;;;;5.32;2.35;;;21.80;38.00;;;;;;8393063;28;20045;-55
2021/01/30 15:42:40;;;;;;;5.90;2.20;;;21.80;37.80;;;;;;8389258;28;20045;-58
2021/01/30 15:46:41;;;;;;;6.10;2.10;;;21.70;38.00;;;;;;8388260;28;20119;-57
2021/01/30 15:50:42;;;;;;;5.40;2.43;;;21.70;37.90;;;;;;8390100;28;20087;-57
2021/01/30 15:54:42;;;;;;;5.72;2.35;;;21.70;37.80;;;;;;8394492;28;20081;-57
2021/01/30 15:58:43;;;;;;;3.80;1.70;;;21.70;37.80;;;;;;8387610;28;20076;-57
2021/01/30 16:02:43;;;;;;;3.60;1.83;;;21.70;37.70;;;;;;8389530;28;20441;-57
2021/01/30 16:06:44;;;;;;;4.03;2.00;;;21.70;37.70;;;;;;8389595;28;20507;-57
2021/01/30 16:10:46;;;;;;;5.87;1.80;;;21.60;37.70;;;;;;8387588;28;20465;-58
2021/01/30 16:14:46;;;;;;;2.78;1.48;;;21.60;37.60;;;;;;8398789;28;20033;-57
2021/01/30 16:18:47;;;;;;;6.73;2.30;;;21.60;37.60;;;;;;8395605;27;20098;-57
2021/01/30 16:22:48;;;;;;;4.73;1.80;;;21.60;37.50;;;;;;8393349;28;20481;-57
2021/01/30 16:26:49;;;;;;;3.22;1.92;;;21.60;37.60;;;;;;8395179;28;20060;-56
2021/01/30 16:30:50;;;;;;;4.72;1.80;;;21.60;37.50;;;;;;8399548;28;20071;-57
2021/01/30 16:34:51;;;;;;;6.85;2.13;;;21.60;37.50;;;;;;8393339;28;20029;-57
2021/01/30 16:38:51;;;;;;;4.17;1.90;;;21.60;37.50;;;;;;8394917;28;20048;-57
2021/01/30 16:42:52;;;;;;;2.73;1.90;;;21.50;37.50;;;;;;8394651;28;20603;-57
2021/01/30 16:46:52;;;;;;;4.07;1.90;;;21.50;37.40;;;;;;8394214;27;20583;-57
2021/01/30 16:50:53;;;;;;;3.33;1.90;;;21.50;37.40;;;;;;8397645;28;20032;-57
2021/01/30 16:54:53;;;;;;;2.50;1.80;;;21.50;37.40;;;;;;8394357;28;20243;-57
2021/01/30 16:58:54;;;;;;;2.07;1.63;;;21.50;37.50;;;;;;8392919;27;20135;-57
2021/01/30 17:02:56;;;;;;;2.80;1.70;;;21.40;37.40;;;;;;8397601;28;20125;-57
2021/01/30 17:06:57;;;;;;;3.10;2.10;;;21.40;37.50;;;;;;8431903;28;20036;-57
2021/01/30 17:10:57;;;;;;;3.07;1.50;;;21.40;37.50;;;;;;8397570;28;20485;-57
2021/01/30 17:14:58;;;;;;;2.80;1.73;;;21.40;37.50;;;;;;8394105;27;20060;-57
2021/01/30 17:18:58;;;;;;;2.40;1.77;;;21.40;37.60;;;;;;8400920;28;20136;-57
2021/01/30 17:22:59;;;;;;;3.10;1.57;;;21.30;37.50;;;;;;8429830;28;20028;-58
2021/01/30 17:27:00;;;;;;;3.40;1.90;;;21.30;37.50;;;;;;8394818;28;20059;-57
2021/01/30 17:31:01;;;;;;;2.60;2.00;;;21.30;37.50;;;;;;8412726;28;20028;-54
2021/01/30 17:35:02;;;;;;;3.63;2.22;;;21.30;37.60;;;;;;8415674;28;20047;-58
2021/01/30 17:39:02;;;;;;;2.40;2.03;;;21.30;37.50;;;;;;8392907;28;20044;-57
2021/01/30 17:43:04;;;;;;;3.28;2.10;;;21.30;37.50;;;;;;8395685;28;20385;-57
2021/01/30 17:47:05;;;;;;;4.05;2.28;;;21.30;37.80;;;;;;8393115;27;20174;-57
2021/01/30 17:51:05;;;;;;;3.33;2.20;;;21.30;37.50;;;;;;8392506;28;20028;-57
2021/01/30 17:55:08;;;;;;;3.17;2.00;;;21.30;37.50;;;;;;8391023;28;20035;-57
2021/01/30 17:59:09;;;;;;;3.45;2.00;;;21.20;37.40;;;;;;8397004;28;20128;-57
2021/01/30 18:03:11;;;;;;;3.33;2.20;;;21.20;37.50;;;;;;8421421;28;20047;-56
2021/01/30 18:07:12;;;;;;;2.28;1.65;;;21.20;37.40;;;;;;8404000;28;20037;-57
2021/01/30 18:11:13;;;;;;;3.23;1.90;;;21.20;37.40;;;;;;8392084;28;20195;-57
2021/01/30 18:15:14;;;;;;;2.83;1.93;;;21.20;37.40;;;;;;8394027;28;20036;-57
2021/01/30 18:19:15;;;;;;;4.13;2.20;;;21.20;37.90;;;;;;8393272;28;20087;-57
2021/01/30 18:23:16;;;;;;;2.77;2.20;;;21.20;37.40;;;;;;8391858;27;20040;-58
2021/01/30 18:27:25;;;;;;;2.70;1.90;;;21.20;37.30;;;;;;8391698;28;20048;-57
2021/01/30 18:31:25;;;;;;;3.95;2.55;;;21.20;37.30;;;;;;8389318;28;20043;-57
2021/01/30 18:35:27;;;;;;;3.27;2.40;;;21.20;37.40;;;;;;8395242;27;20412;-57
2021/01/30 18:39:27;;;;;;;2.95;2.33;;;21.20;37.30;;;;;;8391379;28;20079;-58
2021/01/30 18:43:28;;;;;;;2.13;1.70;;;21.20;37.30;;;;;;8389793;28;20385;-58
2021/01/30 18:47:28;;;;;;;4.43;1.93;;;21.20;37.30;;;;;;8391404;28;20060;-57
2021/01/30 18:51:29;;;;;;;4.80;1.80;;;21.20;37.30;;;;;;8395611;28;20033;-56
2021/01/30 18:55:29;;;;;;;5.40;2.10;;;21.20;37.30;;;;;;8389564;28;20033;-57
2021/01/30 18:59:30;;;;;;;10.87;2.57;;;21.10;37.20;;;;;;8390906;28;20147;-57
2021/01/30 19:03:30;;;;;;;2.43;1.90;;;21.20;37.40;;;;;;8390984;28;20367;-58
2021/01/30 19:07:31;;;;;;;2.47;1.83;;;21.10;37.20;;;;;;8389495;28;20093;-57
2021/01/30 19:11:33;;;;;;;3.03;1.97;;;21.10;37.20;;;;;;8395336;28;20040;-57
2021/01/30 19:15:34;;;;;;;2.85;1.90;;;21.10;37.20;;;;;;8390373;28;20063;-57
2021/01/30 19:19:34;;;;;;;3.77;2.30;;;21.10;37.20;;;;;;8389230;28;20052;-57
2021/01/30 19:23:35;;;;;;;2.83;1.87;;;21.10;37.10;;;;;;8390414;28;20050;-57
2021/01/30 19:27:36;;;;;;;2.53;1.83;;;21.10;37.20;;;;;;8394911;28;20075;-57
2021/01/30 19:31:37;;;;;;;3.97;2.00;;;21.10;37.10;;;;;;8389113;28;20036;-57
2021/01/30 19:35:37;;;;;;;2.05;1.67;;;21.10;37.10;;;;;;8390583;28;20063;-57
2021/01/30 19:39:38;;;;;;;2.63;1.90;;;21.10;37.10;;;;;;8390125;28;20432;-59
2021/01/30 19:43:38;;;;;;;2.80;1.80;;;21.10;37.10;;;;;;8390369;28;20031;-57
2021/01/30 19:47:39;;;;;;;2.77;2.40;;;21.10;37.10;;;;;;8428754;28;20366;-58
2021/01/30 19:51:40;;;;;;;2.97;2.08;;;21.10;37.10;;;;;;8405752;28;20068;-57
2021/01/30 19:55:41;;;;;;;3.03;2.10;;;21.10;37.10;;;;;;8394730;28;20039;-57
2021/01/30 19:59:41;;;;;;;2.83;2.13;;;21.10;37.10;;;;;;8397083;28;20032;-57
2021/01/30 20:03:42;;;;;;;3.43;2.17;;;21.10;37.10;;;;;;8400572;28;20029;-57
2021/01/30 20:07:44;;;;;;;2.63;1.90;;;21.10;37.10;;;;;;8394232;28;20036;-58
2021/01/30 20:11:45;;;;;;;1.90;1.63;;;21.10;37.10;;;;;;8412779;28;20055;-57
2021/01/30 20:15:45;;;;;;;2.13;1.92;;;21.10;37.10;;;;;;8421749;28;20033;-57
2021/01/30 20:19:47;;;;;;;1.50;1.33;;;21.10;37.10;;;;;;8398774;27;20202;-58
2021/01/30 20:23:47;;;;;;;2.72;1.98;;;21.10;37.10;;;;;;8396134;28;20028;-59
2021/01/30 20:27:48;;;;;;;3.80;2.00;;;21.10;37.10;;;;;;8395178;28;20032;-58
2021/01/30 20:31:49;;;;;;;2.30;1.97;;;21.10;37.10;;;;;;8393047;28;20020;-58
2021/01/30 20:35:50;;;;;;;2.78;2.13;;;21.00;37.00;;;;;;8394941;28;20060;-57
2021/01/30 20:39:51;;;;;;;2.70;1.80;;;21.10;37.00;;;;;;8399344;28;20040;-57
2021/01/30 20:43:51;;;;;;;4.28;2.00;;;21.10;37.10;;;;;;8393121;28;20040;-58
2021/01/30 20:47:52;;;;;;;3.23;2.00;;;21.00;37.00;;;;;;8395396;27;20024;-57
2021/01/30 20:51:54;;;;;;;2.65;1.70;;;21.00;37.00;;;;;;8395380;28;20496;-57
2021/01/30 20:55:55;;;;;;;3.35;2.03;;;21.00;37.00;;;;;;8397783;28;20460;-57
2021/01/30 20:59:55;;;;;;;2.83;2.00;;;21.00;36.90;;;;;;8395002;28;20040;-57
2021/01/30 21:03:56;;;;;;;2.67;1.87;;;21.00;37.00;;;;;;8395025;28;20063;-58
2021/01/30 21:07:57;;;;;;;1.83;1.67;;;21.00;36.90;;;;;;8392412;28;20075;-57
2021/01/30 21:11:57;;;;;;;2.83;2.08;;;21.00;37.00;;;;;;8398710;28;20444;-57